createdAt,value
2023-05-14T00:02:55.793Z,12.73
2023-05-14T00:06:57.753Z,12.69
2023-05-14T00:10:59.590Z,12.65
2023-05-14T00:15:01.751Z,12.61
2023-05-14T00:19:03.996Z,12.58
2023-05-14T00:23:06.004Z,12.51
2023-05-14T00:27:07.946Z,12.48
2023-05-14T00:31:09.780Z,12.46
2023-05-14T00:35:11.651Z,12.46
2023-05-14T00:39:14.527Z,12.44
2023-05-14T00:43:16.378Z,12.42
2023-05-14T00:47:18.430Z,12.38
2023-05-14T00:51:20.425Z,12.36
2023-05-14T00:55:22.987Z,12.30
2023-05-14T00:59:24.784Z,12.25
2023-05-14T01:03:27.031Z,12.22
2023-05-14T01:07:44.859Z,12.17
2023-05-14T01:11:49.745Z,12.13
2023-05-14T01:15:54.903Z,12.09
2023-05-14T01:19:57.974Z,12.07
2023-05-14T01:24:00.267Z,12.05
2023-05-14T01:28:13.956Z,12.01
2023-05-14T01:32:17.819Z,11.96
2023-05-14T01:36:19.754Z,11.93
2023-05-14T01:40:24.050Z,11.92
2023-05-14T01:44:26.417Z,11.87
2023-05-14T01:48:30.201Z,11.83
2023-05-14T01:52:32.040Z,11.82
2023-05-14T01:56:33.893Z,11.81
2023-05-14T02:00:35.815Z,11.78
2023-05-14T02:04:37.702Z,11.75
2023-05-14T02:08:39.585Z,11.72
2023-05-14T02:12:41.480Z,11.70
2023-05-14T02:16:43.359Z,11.65
2023-05-14T02:20:45.329Z,11.60
2023-05-14T02:24:47.267Z,11.53
2023-05-14T02:28:49.168Z,11.48
2023-05-14T02:32:51.316Z,11.43
2023-05-14T02:36:53.321Z,11.40
2023-05-14T02:40:55.111Z,11.36
2023-05-14T02:44:56.958Z,11.34
2023-05-14T02:48:59.119Z,11.33
2023-05-14T02:53:01.923Z,11.32
2023-05-14T02:57:03.862Z,11.31
2023-05-14T03:01:05.868Z,11.32
2023-05-14T03:05:09.679Z,11.30
2023-05-14T03:09:11.574Z,11.25
2023-05-14T03:13:14.681Z,11.22
2023-05-14T03:17:16.499Z,11.16
2023-05-14T03:21:18.489Z,11.14
2023-05-14T03:25:20.396Z,11.13
2023-05-14T03:29:22.193Z,11.11
2023-05-14T03:33:24.084Z,11.09
2023-05-14T03:37:26.119Z,11.06
2023-05-14T03:41:27.904Z,11.03
2023-05-14T03:45:30.568Z,11.03
2023-05-14T03:49:34.048Z,11.00
2023-05-14T03:53:36.356Z,11.01
2023-05-14T03:57:38.352Z,11.00
2023-05-14T04:01:40.127Z,11.02
2023-05-14T04:05:41.921Z,11.01
2023-05-14T04:09:44.075Z,10.99
2023-05-14T04:13:46.998Z,10.98
2023-05-14T04:17:48.841Z,11.02
2023-05-14T04:21:50.853Z,11.08
2023-05-14T04:25:52.649Z,11.12
2023-05-14T04:29:54.763Z,11.16
2023-05-14T04:33:56.546Z,11.18
2023-05-14T04:37:58.464Z,11.18
2023-05-14T04:42:00.270Z,11.22
2023-05-14T04:46:02.445Z,11.26
2023-05-14T04:50:04.914Z,11.28
2023-05-14T04:54:06.904Z,11.29
2023-05-14T04:58:08.781Z,11.33
2023-05-14T05:02:10.617Z,11.35
2023-05-14T05:06:12.520Z,11.37
2023-05-14T05:10:14.397Z,11.36
2023-05-14T05:14:16.160Z,11.40
2023-05-14T05:18:18.010Z,11.44
2023-05-14T05:22:20.393Z,11.47
2023-05-14T05:26:25.043Z,11.48
2023-05-14T05:30:27.017Z,11.49
2023-05-14T05:34:28.871Z,11.51
2023-05-14T05:38:30.734Z,11.56
2023-05-14T05:42:32.627Z,11.57
2023-05-14T05:46:34.507Z,11.59
2023-05-14T05:50:36.289Z,11.59
2023-05-14T05:54:40.025Z,11.61
2023-05-14T05:58:41.917Z,11.60
2023-05-14T06:02:44.289Z,11.62
2023-05-14T06:06:46.264Z,11.70
2023-05-14T06:10:48.144Z,11.75
2023-05-14T06:14:49.984Z,11.78
2023-05-14T06:18:52.986Z,11.85
2023-05-14T06:22:54.846Z,11.96
2023-05-14T06:26:56.658Z,12.06
2023-05-14T06:30:58.536Z,12.15
2023-05-14T06:35:00.383Z,12.21
2023-05-14T06:39:02.292Z,12.22
2023-05-14T06:43:06.500Z,12.24
2023-05-14T06:47:08.745Z,12.23
2023-05-14T06:51:11.125Z,12.25
2023-05-14T06:55:12.904Z,12.32
2023-05-14T06:59:14.725Z,12.46
2023-05-14T07:03:16.574Z,12.68
2023-05-14T07:07:20.821Z,12.89
2023-05-14T07:11:23.250Z,13.13
2023-05-14T07:15:25.059Z,13.33
2023-05-14T07:19:28.861Z,13.44
2023-05-14T07:23:30.854Z,13.52
2023-05-14T07:27:34.924Z,13.55
2023-05-14T07:31:36.785Z,13.75
2023-05-14T07:35:38.757Z,13.89
2023-05-14T07:39:41.853Z,13.82
2023-05-14T07:43:43.805Z,13.80
2023-05-14T07:47:45.740Z,13.71
2023-05-14T07:51:47.582Z,13.83
2023-05-14T07:55:49.524Z,13.81
2023-05-14T07:59:51.482Z,13.78
2023-05-14T08:03:53.347Z,13.80
2023-05-14T08:07:55.267Z,13.85
2023-05-14T08:11:57.103Z,13.87
2023-05-14T08:15:59.146Z,13.96
2023-05-14T08:20:00.929Z,14.09
2023-05-14T08:24:02.820Z,14.22
2023-05-14T08:28:05.112Z,14.37
2023-05-14T08:32:19.277Z,14.46
2023-05-14T08:36:24.301Z,14.61
2023-05-14T08:40:27.199Z,14.65
2023-05-14T08:44:53.710Z,14.73
2023-05-14T08:49:00.757Z,14.83
2023-05-14T08:53:02.755Z,14.92
2023-05-14T08:57:05.212Z,15.03
2023-05-14T09:01:07.073Z,15.07
2023-05-14T09:05:09.583Z,15.18
2023-05-14T09:09:11.897Z,15.28
2023-05-14T09:13:13.709Z,15.25
2023-05-14T09:17:16.848Z,15.28
2023-05-14T09:21:18.968Z,15.36
2023-05-14T09:25:20.909Z,15.45
2023-05-14T09:29:30.006Z,15.60
2023-05-14T09:33:31.927Z,15.72
2023-05-14T09:37:36.697Z,15.90
2023-05-14T09:41:38.542Z,16.02
2023-05-14T09:45:41.087Z,16.05
2023-05-14T09:49:42.876Z,16.07
2023-05-14T09:53:44.788Z,16.16
2023-05-14T09:57:46.684Z,16.27
2023-05-14T10:01:50.145Z,16.34
2023-05-14T10:05:52.692Z,16.46
2023-05-14T10:10:01.967Z,16.57
2023-05-14T10:14:09.418Z,16.69
2023-05-14T10:18:14.603Z,16.88
2023-05-14T10:22:19.013Z,17.03
2023-05-14T10:26:23.225Z,17.10
2023-05-14T10:30:26.212Z,17.13
2023-05-14T10:34:45.389Z,17.11
2023-05-14T10:38:47.453Z,17.11
2023-05-14T10:42:49.986Z,17.25
2023-05-14T10:46:52.527Z,17.36
2023-05-14T10:50:56.438Z,17.44
2023-05-14T10:55:03.127Z,17.47
2023-05-14T10:59:06.951Z,17.55
2023-05-14T11:03:08.961Z,17.59
2023-05-14T11:07:10.890Z,17.59
2023-05-14T11:11:12.920Z,17.60
2023-05-14T11:15:18.401Z,17.57
2023-05-14T11:19:21.904Z,17.51
2023-05-14T11:23:25.825Z,17.48
2023-05-14T11:27:27.807Z,17.54
2023-05-14T11:31:29.713Z,17.62
2023-05-14T11:35:32.658Z,17.66
2023-05-14T11:39:37.652Z,17.77
2023-05-14T11:43:39.496Z,17.93
2023-05-14T11:47:42.934Z,17.99
2023-05-14T11:51:44.935Z,18.13
2023-05-14T11:55:47.873Z,18.27
2023-05-14T11:59:59.080Z,18.36
2023-05-14T12:04:00.990Z,18.39
2023-05-14T12:08:02.843Z,18.40
2023-05-14T12:12:10.274Z,18.40
2023-05-14T12:16:12.226Z,18.47
2023-05-14T12:20:14.178Z,18.53
2023-05-14T12:24:18.716Z,18.59
2023-05-14T12:28:20.840Z,18.59
2023-05-14T12:32:25.608Z,18.56
2023-05-14T12:36:27.460Z,18.51
2023-05-14T12:40:29.816Z,18.41
2023-05-14T12:44:31.725Z,18.37
2023-05-14T12:48:33.600Z,18.37
2023-05-14T12:52:39.395Z,18.29
2023-05-14T12:56:41.966Z,18.28
2023-05-14T13:00:43.856Z,18.22
2023-05-14T13:04:45.938Z,18.19
2023-05-14T13:08:47.818Z,18.16
2023-05-14T13:12:50.772Z,18.16
2023-05-14T13:16:52.655Z,18.07
2023-05-14T13:20:54.493Z,18.22
2023-05-14T13:24:56.324Z,18.18
2023-05-14T13:28:58.208Z,18.11
2023-05-14T13:33:00.295Z,18.03
2023-05-14T13:37:02.253Z,18.00
2023-05-14T13:41:04.289Z,18.05
2023-05-14T13:45:06.781Z,17.89
2023-05-14T13:49:08.587Z,17.73
2023-05-14T13:53:10.459Z,17.46
2023-05-14T13:57:12.288Z,17.46
2023-05-14T14:01:14.155Z,17.41
2023-05-14T14:05:16.251Z,17.16
2023-05-14T14:09:18.212Z,17.04
2023-05-14T14:13:21.452Z,16.96
2023-05-14T14:17:23.278Z,16.92
2023-05-14T14:21:25.104Z,16.67
2023-05-14T14:25:26.951Z,16.62
2023-05-14T14:29:31.324Z,16.54
2023-05-14T14:33:33.163Z,16.47
2023-05-14T14:37:34.972Z,16.42
2023-05-14T14:41:36.952Z,16.35
2023-05-14T14:45:38.815Z,16.24
2023-05-14T14:49:40.632Z,16.11
2023-05-14T14:53:42.558Z,16.00
2023-05-14T14:57:44.458Z,15.86
2023-05-14T15:01:46.407Z,15.70
2023-05-14T15:05:48.861Z,15.52
2023-05-14T15:09:50.863Z,15.33
2023-05-14T15:13:52.734Z,15.34
2023-05-14T15:17:54.688Z,15.27
2023-05-14T15:21:56.548Z,15.26
2023-05-14T15:25:58.356Z,15.32
2023-05-14T15:30:00.182Z,15.38
2023-05-14T15:34:02.040Z,15.34
2023-05-14T15:38:04.072Z,15.33
2023-05-14T15:42:07.662Z,15.21
2023-05-14T15:46:09.728Z,15.08
2023-05-14T15:50:11.949Z,14.89
2023-05-14T15:54:13.920Z,14.79
2023-05-14T15:58:15.886Z,14.69
2023-05-14T16:02:17.935Z,14.46
2023-05-14T16:06:19.807Z,14.17
2023-05-14T16:10:22.148Z,13.96
2023-05-14T16:14:24.172Z,13.88
2023-05-14T16:18:26.553Z,13.83
2023-05-14T16:22:29.608Z,13.92
2023-05-14T16:26:31.505Z,13.94
2023-05-14T16:30:33.412Z,13.92
2023-05-14T16:34:35.291Z,13.78
2023-05-14T16:38:44.613Z,13.69
2023-05-14T16:42:54.457Z,13.75
2023-05-14T16:46:56.493Z,13.88
2023-05-14T16:50:59.664Z,13.96
2023-05-14T16:55:01.500Z,13.99
2023-05-14T16:59:03.523Z,13.92
2023-05-14T17:03:06.768Z,13.94
2023-05-14T17:07:08.689Z,13.97
2023-05-14T17:11:10.580Z,13.95
2023-05-14T17:15:12.458Z,13.94
2023-05-14T17:19:14.342Z,13.90
2023-05-14T17:23:17.293Z,13.86
2023-05-14T17:27:19.105Z,13.83
2023-05-14T17:31:22.397Z,13.66
2023-05-14T17:35:24.497Z,13.60
2023-05-14T17:39:26.659Z,13.50
2023-05-14T17:43:28.519Z,13.40
2023-05-14T17:47:30.509Z,13.36
2023-05-14T17:51:32.377Z,13.28
2023-05-14T17:55:40.074Z,13.20
2023-05-14T17:59:41.903Z,13.14
2023-05-14T18:03:43.827Z,13.10
2023-05-14T18:07:45.896Z,13.05
2023-05-14T18:11:47.718Z,12.99
2023-05-14T18:15:51.713Z,12.94
2023-05-14T18:19:53.566Z,12.84
2023-05-14T18:23:55.437Z,12.82
2023-05-14T18:27:57.310Z,12.74
2023-05-14T18:31:59.098Z,12.68
2023-05-14T18:36:01.720Z,12.64
2023-05-14T18:40:04.907Z,12.54
2023-05-14T18:44:06.815Z,12.45
2023-05-14T18:48:10.235Z,12.47
2023-05-14T18:52:12.057Z,12.41
2023-05-14T18:56:13.964Z,12.35
2023-05-14T19:00:16.221Z,12.34
2023-05-14T19:04:18.095Z,12.29
2023-05-14T19:08:19.978Z,12.13
2023-05-14T19:12:21.818Z,11.99
2023-05-14T19:16:24.378Z,11.96
2023-05-14T19:20:26.382Z,11.88
2023-05-14T19:24:28.187Z,11.84
2023-05-14T19:28:30.138Z,11.83
2023-05-14T19:32:31.985Z,11.77
2023-05-14T19:36:33.946Z,11.71
2023-05-14T19:40:35.789Z,11.63
2023-05-14T19:44:37.699Z,11.60
2023-05-14T19:48:39.557Z,11.58
2023-05-14T19:52:41.467Z,11.57
2023-05-14T19:56:43.296Z,11.56
2023-05-14T20:00:47.495Z,11.58
2023-05-14T20:04:55.682Z,11.57
2023-05-14T20:08:57.516Z,11.56
2023-05-14T20:12:59.602Z,11.52
2023-05-14T20:17:01.988Z,11.50
2023-05-14T20:21:04.125Z,11.48
2023-05-14T20:25:07.206Z,11.48
2023-05-14T20:29:11.169Z,11.46
2023-05-14T20:33:13.932Z,11.40
2023-05-14T20:37:15.839Z,11.39
2023-05-14T20:41:17.617Z,11.38
2023-05-14T20:45:19.597Z,11.35
2023-05-14T20:49:21.405Z,11.31
2023-05-14T20:53:23.559Z,11.24
2023-05-14T20:57:25.882Z,11.19
2023-05-14T21:01:27.823Z,11.15
2023-05-14T21:05:29.738Z,11.10
2023-05-14T21:09:31.885Z,11.05
2023-05-14T21:13:33.890Z,11.05
2023-05-14T21:17:35.756Z,11.06
2023-05-14T21:21:37.774Z,11.09
2023-05-14T21:25:39.655Z,11.06
2023-05-14T21:29:41.588Z,11.04
2023-05-14T21:33:43.402Z,11.01
2023-05-14T21:37:45.299Z,11.00
2023-05-14T21:41:47.167Z,10.97
2023-05-14T21:45:49.222Z,10.99
2023-05-14T21:49:51.037Z,11.00
2023-05-14T21:53:52.843Z,11.02
2023-05-14T21:57:54.782Z,11.03
2023-05-14T22:02:06.791Z,11.01
2023-05-14T22:06:09.066Z,11.03
2023-05-14T22:10:14.533Z,11.00
2023-05-14T22:14:16.378Z,10.93
2023-05-14T22:18:18.452Z,10.91
2023-05-14T22:22:20.454Z,10.88
2023-05-14T22:26:22.310Z,10.82
2023-05-14T22:30:24.205Z,10.76
2023-05-14T22:34:26.079Z,10.74
2023-05-14T22:38:27.882Z,10.73
2023-05-14T22:42:29.789Z,10.75
2023-05-14T22:46:31.743Z,10.73
2023-05-14T22:50:33.826Z,10.71
2023-05-14T22:54:36.530Z,10.71
2023-05-14T22:58:38.355Z,10.72
2023-05-14T23:02:40.344Z,10.73
2023-05-14T23:06:42.249Z,10.68
2023-05-14T23:10:44.016Z,10.63
2023-05-14T23:14:46.165Z,10.57
2023-05-14T23:18:48.213Z,10.52
2023-05-14T23:22:50.102Z,10.49
2023-05-14T23:26:51.930Z,10.48
2023-05-14T23:30:53.785Z,10.44
2023-05-14T23:34:55.868Z,10.42
2023-05-14T23:38:58.910Z,10.40
2023-05-14T23:43:01.189Z,10.38
2023-05-14T23:47:03.202Z,10.38
2023-05-14T23:51:05.081Z,10.36
2023-05-14T23:55:07.180Z,10.36
2023-05-14T23:59:09.093Z,10.34
